Time;durP1;ratioP1;P1;durP2;ratioP2;P2;SDS_P1;SDS_P2;PMS_P1;PMS_P2;Temp;Humidity;BMP_temperature;BMP_pressure;BME280_temperature;BME280_humidity;BME280_pressure;Samples;Min_cycle;Max_cycle;Signal;HPM_P1;HPM_P2
2022/10/05 00:02:36;;;;;;;21.30;11.20;;;;;;;11.02;100.00;100812.60;659597;1276;139858;-83
2022/10/05 00:17:41;;;;;;;24.90;12.30;;;;;;;10.95;100.00;100821.55;658626;1277;139615;-83
2022/10/05 00:32:45;;;;;;;32.10;17.70;;;;;;;10.80;100.00;100821.56;657907;1276;140601;-82
2022/10/05 00:48:07;;;;;;;35.10;18.20;;;;;;;10.65;100.00;100823.95;661518;1276;140256;-83
2022/10/05 01:03:49;;;;;;;20.70;12.40;;;;;;;10.62;100.00;100808.46;658405;1276;140600;-83
2022/10/05 01:19:39;;;;;;;24.00;12.20;;;;;;;10.76;100.00;100788.23;658011;1275;140751;-83
2022/10/05 01:34:48;;;;;;;40.20;15.90;;;;;;;10.83;100.00;100776.34;658299;1276;141728;-82
2022/10/05 01:50:03;;;;;;;50.00;23.60;;;;;;;10.72;100.00;100778.75;659138;1276;140149;-83
2022/10/05 02:05:15;;;;;;;22.70;11.80;;;;;;;10.75;100.00;100769.96;658593;1276;140146;-83
2022/10/05 02:20:26;;;;;;;23.70;14.90;;;;;;;10.91;100.00;100771.50;659669;1276;140447;-85
2022/10/05 02:35:29;;;;;;;22.50;11.90;;;;;;;10.90;100.00;100749.32;658008;1276;140640;-82
2022/10/05 02:51:02;;;;;;;19.60;10.80;;;;;;;10.92;100.00;100746.73;657611;1277;139462;-83
2022/10/05 03:06:19;;;;;;;18.70;10.30;;;;;;;10.96;100.00;100743.23;658349;1278;139656;-83
2022/10/05 03:21:51;;;;;;;21.40;12.00;;;;;;;11.01;100.00;100751.92;658094;1276;140756;-83
2022/10/05 03:37:06;;;;;;;22.20;11.60;;;;;;;11.08;100.00;100759.73;659199;1276;140202;-83
2022/10/05 03:52:22;;;;;;;23.10;12.50;;;;;;;11.08;100.00;100738.98;659515;1276;140332;-83
2022/10/05 04:07:45;;;;;;;22.40;12.80;;;;;;;11.07;100.00;100722.41;659688;1276;139417;-83
2022/10/05 04:22:53;;;;;;;28.20;13.30;;;;;;;11.17;100.00;100705.48;660627;1276;140174;-82
2022/10/05 04:38:21;;;;;;;24.40;12.10;;;;;;;11.23;100.00;100705.27;661311;1277;139495;-83
2022/10/05 04:53:31;;;;;;;29.50;15.90;;;;;;;11.27;100.00;100704.07;661084;1276;140411;-83
2022/10/05 05:09:15;;;;;;;29.90;16.30;;;;;;;11.35;100.00;100701.71;662389;1276;140525;-85
2022/10/05 05:24:43;;;;;;;29.70;16.50;;;;;;;11.45;100.00;100694.73;659096;1276;139562;-82
2022/10/05 05:40:23;;;;;;;30.80;16.70;;;;;;;11.42;100.00;100700.34;658774;1277;140340;-82
2022/10/05 05:55:38;;;;;;;30.10;18.00;;;;;;;11.49;100.00;100712.55;657642;1276;1612677;-83
2022/10/05 06:10:48;;;;;;;31.10;17.20;;;;;;;11.59;100.00;100720.64;659425;1276;140048;-84
2022/10/05 06:26:07;;;;;;;28.90;15.50;;;;;;;11.81;100.00;100697.02;658998;1277;139693;-83
2022/10/05 06:41:36;;;;;;;21.10;12.90;;;;;;;12.17;100.00;100678.04;660049;1276;139475;-84
2022/10/05 06:57:00;;;;;;;25.90;12.20;;;;;;;12.54;100.00;100694.04;664499;1276;140621;-84
2022/10/05 07:12:26;;;;;;;23.90;12.80;;;;;;;12.71;100.00;100691.98;659397;1277;140357;-83
2022/10/05 07:27:36;;;;;;;20.10;10.40;;;;;;;13.22;100.00;100647.40;660108;1276;139832;-84
2022/10/05 07:43:09;;;;;;;17.70;9.90;;;;;;;14.26;100.00;100645.55;664024;1276;139501;-83
2022/10/05 07:58:26;;;;;;;18.50;8.80;;;;;;;14.66;100.00;100632.09;663188;1278;140360;-83
2022/10/05 08:13:46;;;;;;;15.60;8.90;;;;;;;14.67;100.00;100670.23;658289;1276;139749;-84
2022/10/05 08:29:11;;;;;;;17.40;8.90;;;;;;;14.98;99.57;100655.46;659171;1276;139318;-86
2022/10/05 08:44:48;;;;;;;11.90;7.70;;;;;;;15.45;97.08;100638.60;658846;1276;139572;-84
2022/10/05 09:00:05;;;;;;;16.50;8.50;;;;;;;15.38;94.71;100652.92;658798;1276;139739;-83
2022/10/05 09:15:41;;;;;;;16.20;8.90;;;;;;;15.41;94.96;100648.56;658788;1276;139264;-83
2022/10/05 09:30:56;;;;;;;12.20;8.00;;;;;;;15.69;94.74;100631.51;658556;1276;140277;-84
2022/10/05 09:46:39;;;;;;;9.20;7.30;;;;;;;16.05;93.95;100646.67;659221;1276;140683;-85
2022/10/05 10:02:29;;;;;;;13.40;7.60;;;;;;;16.88;91.20;100655.95;657880;1277;138979;-85
2022/10/05 10:17:49;;;;;;;9.70;6.00;;;;;;;17.93;85.69;100645.52;659179;1276;139645;-83
2022/10/05 10:33:04;;;;;;;10.70;5.80;;;;;;;18.04;82.65;100633.71;658943;1276;140059;-83
2022/10/05 10:48:20;;;;;;;14.90;6.60;;;;;;;18.15;82.44;100642.54;659309;1275;141335;-84
2022/10/05 11:03:45;;;;;;;10.50;4.60;;;;;;;18.17;80.91;100649.56;660810;1276;140388;-84
2022/10/05 11:19:09;;;;;;;9.00;4.90;;;;;;;18.04;78.54;100661.13;659044;1276;140968;-85
2022/10/05 11:34:35;;;;;;;9.80;4.50;;;;;;;18.17;77.58;100653.04;663580;1276;139218;-85
2022/10/05 11:49:47;;;;;;;9.80;4.40;;;;;;;18.16;78.05;100604.02;661666;1277;139002;-85
2022/10/05 12:04:57;;;;;;;10.50;4.80;;;;;;;18.36;76.61;100589.45;661752;1277;140747;-84
2022/10/05 12:20:10;;;;;;;10.40;4.90;;;;;;;18.72;76.99;100584.94;661491;1277;140325;-84
2022/10/05 12:35:24;;;;;;;14.80;6.00;;;;;;;19.03;76.10;100588.02;664123;1277;140281;-85
2022/10/05 12:50:52;;;;;;;10.90;6.00;;;;;;;19.12;75.20;100582.99;661098;1277;141198;-84
2022/10/05 13:06:14;;;;;;;11.30;5.10;;;;;;;18.83;76.10;100588.79;658758;1277;139817;-85
2022/10/05 13:21:25;;;;;;;7.40;4.80;;;;;;;18.47;77.48;100588.42;658417;1277;139509;-87
2022/10/05 13:36:55;;;;;;;11.90;4.70;;;;;;;18.15;77.69;100564.98;659281;1277;139038;-85
2022/10/05 13:51:59;;;;;;;139.10;57.80;;;;;;;17.96;78.48;100554.80;660272;1277;139622;-85
2022/10/05 14:07:43;;;;;;;18.60;9.90;;;;;;;17.85;79.70;100572.63;660598;1277;141486;-84
2022/10/05 14:22:56;;;;;;;10.90;6.60;;;;;;;17.88;80.22;100566.95;660388;1277;140278;-84
2022/10/05 14:38:02;;;;;;;12.40;5.20;;;;;;;18.30;80.42;100552.48;663371;1276;140566;-86
2022/10/05 14:53:09;;;;;;;9.20;5.30;;;;;;;18.47;80.56;100552.83;658697;1277;139131;-85
2022/10/05 15:08:32;;;;;;;25.80;13.10;;;;;;;18.01;81.76;100544.64;657996;1277;139594;-85
2022/10/05 15:23:46;;;;;;;38.70;20.90;;;;;;;17.58;83.63;100541.41;659935;1276;139689;-85
2022/10/05 15:39:02;;;;;;;16.10;9.30;;;;;;;17.33;85.64;100534.65;661071;1277;140642;-84
2022/10/05 16:10:22;;;;;;;18.30;8.80;;;;;;;16.84;88.52;100513.20;658050;1277;139217;-87
2022/10/05 16:25:46;;;;;;;21.90;16.50;;;;;;;16.45;90.22;100516.66;658210;1277;139194;-84
2022/10/05 16:41:21;;;;;;;21.00;15.30;;;;;;;16.16;92.12;100519.06;660085;1277;140488;-86
2022/10/05 16:56:49;;;;;;;24.50;15.50;;;;;;;15.97;93.78;100523.56;660862;1277;139332;-87
2022/10/05 17:12:28;;;;;;;20.00;12.90;;;;;;;15.81;96.02;100516.94;660356;1277;139332;-87
2022/10/05 17:27:55;;;;;;;26.90;17.60;;;;;;;15.69;97.62;100515.20;660361;1276;140447;-87
2022/10/05 17:43:18;;;;;;;70.00;42.30;;;;;;;15.64;98.62;100517.84;660441;1277;139526;-85
2022/10/05 17:58:25;;;;;;;63.40;29.70;;;;;;;15.51;98.43;100514.58;661798;1277;1495907;-86
2022/10/05 18:13:48;;;;;;;65.80;28.70;;;;;;;15.27;99.28;100509.19;661455;1277;140441;-85
2022/10/05 18:29:13;;;;;;;51.80;27.20;;;;;;;14.98;99.96;100496.84;662428;1277;139732;-85
2022/10/05 18:44:30;;;;;;;28.30;15.70;;;;;;;14.76;100.00;100490.45;663309;1277;139851;-85
2022/10/05 18:59:35;;;;;;;38.50;17.40;;;;;;;14.69;100.00;100480.13;661332;1277;139837;-85
2022/10/05 19:14:47;;;;;;;33.90;17.00;;;;;;;14.56;100.00;100470.86;661494;1277;139710;-86
2022/10/05 19:30:03;;;;;;;30.20;12.40;;;;;;;14.48;100.00;100470.00;664390;1277;139746;-84
2022/10/05 19:45:15;;;;;;;23.30;12.40;;;;;;;14.41;100.00;100473.52;662637;1277;140014;-85
2022/10/05 20:00:24;;;;;;;23.30;12.10;;;;;;;14.26;100.00;100478.42;659358;1277;139756;-86
2022/10/05 20:30:54;;;;;;;26.10;13.80;;;;;;;14.05;100.00;100495.48;661099;1277;140305;-86
2022/10/05 20:45:57;;;;;;;27.00;16.50;;;;;;;14.00;100.00;100502.98;663271;1277;140050;-86
2022/10/05 21:01:19;;;;;;;25.20;12.60;;;;;;;13.93;100.00;100497.84;659276;1277;140052;-86
2022/10/05 21:16:23;;;;;;;21.50;12.70;;;;;;;13.85;100.00;100496.73;660107;1277;140772;-84
2022/10/05 21:31:27;;;;;;;22.20;12.10;;;;;;;13.83;100.00;100496.00;659873;1277;139852;-84
2022/10/05 21:46:34;;;;;;;19.20;13.50;;;;;;;13.80;100.00;100496.67;658464;1277;139816;-85
2022/10/05 22:01:37;;;;;;;23.90;13.00;;;;;;;13.68;100.00;100493.44;657641;1277;140416;-85
2022/10/05 22:16:41;;;;;;;18.30;11.00;;;;;;;13.61;100.00;100496.93;659400;1277;139669;-85
2022/10/05 22:31:47;;;;;;;19.80;11.20;;;;;;;13.74;100.00;100495.45;659362;1277;139488;-85
2022/10/05 22:46:50;;;;;;;16.80;11.60;;;;;;;13.91;100.00;100495.93;659669;1277;139506;-85
2022/10/05 23:01:53;;;;;;;20.60;12.20;;;;;;;13.99;100.00;100494.65;657432;1277;140750;-84
2022/10/05 23:16:57;;;;;;;21.30;11.00;;;;;;;13.84;100.00;100497.50;659519;1277;139765;-85
2022/10/05 23:32:00;;;;;;;23.70;12.60;;;;;;;13.59;100.00;100506.33;659437;1276;140795;-85
2022/10/05 23:47:03;;;;;;;19.30;10.40;;;;;;;13.46;100.00;100504.45;658448;1278;140351;-85
